Terminal Aerodrome Forecast
Issued by NWS Huntsville, AL

Home | Current Version | Previous Version | Text Only | Print | Product List | Glossary On
Versions: 1 2 3 4 5 6 7 8 9 10 11 12 13 14 15 16 17 18 19 20 21 22 23 24
600
FTUS44 KHUN 072320
TAFHSV
TAF
KHSV 072320Z 0800/0824 23005KT P6SM BKN250
     FM080900 24005KT P6SM OVC050
     FM081500 29012G17KT P6SM OVC040=

USA.gov is the U.S. government's official web portal to all federal, state and local government web resources and services.